sensor_id;sensor_type;location;lat;lon;timestamp;pressure;altitude;pressure_sealevel;temperature;humidity
22047;BME280;11187;49.412;20.956;2023-04-02T00:01:39;93850.19;;;7.27;100.00
22047;BME280;11187;49.412;20.956;2023-04-02T00:04:15;93856.13;;;7.26;100.00
22047;BME280;11187;49.412;20.956;2023-04-02T00:07:24;93856.06;;;7.29;100.00
22047;BME280;11187;49.412;20.956;2023-04-02T00:10:03;93849.25;;;7.30;100.00
22047;BME280;11187;49.412;20.956;2023-04-02T00:15:45;93857.78;;;7.29;100.00
22047;BME280;11187;49.412;20.956;2023-04-02T00:18:44;93862.91;;;7.27;100.00
22047;BME280;11187;49.412;20.956;2023-04-02T00:21:40;93862.97;;;7.24;100.00
22047;BME280;11187;49.412;20.956;2023-04-02T00:24:18;93865.50;;;7.24;100.00
22047;BME280;11187;49.412;20.956;2023-04-02T00:27:08;93862.13;;;7.24;100.00
22047;BME280;11187;49.412;20.956;2023-04-02T00:29:51;93860.41;;;7.26;100.00
22047;BME280;11187;49.412;20.956;2023-04-02T00:32:39;93863.78;;;7.26;100.00
22047;BME280;11187;49.412;20.956;2023-04-02T00:35:20;93862.91;;;7.27;100.00
22047;BME280;11187;49.412;20.956;2023-04-02T00:38:18;93872.19;;;7.28;100.00
22047;BME280;11187;49.412;20.956;2023-04-02T00:40:55;93877.28;;;7.28;100.00
22047;BME280;11187;49.412;20.956;2023-04-02T00:43:50;93871.34;;;7.29;100.00
22047;BME280;11187;49.412;20.956;2023-04-02T00:46:46;93870.47;;;7.30;100.00
22047;BME280;11187;49.412;20.956;2023-04-02T00:49:28;93874.69;;;7.31;100.00
22047;BME280;11187;49.412;20.956;2023-04-02T00:52:19;93873.78;;;7.34;100.00
22047;BME280;11187;49.412;20.956;2023-04-02T00:57:51;93879.66;;;7.36;100.00
22047;BME280;11187;49.412;20.956;2023-04-02T01:00:32;93881.22;;;7.40;100.00
22047;BME280;11187;49.412;20.956;2023-04-02T01:24:10;93898.09;;;7.44;100.00
22047;BME280;11187;49.412;20.956;2023-04-02T01:26:53;93898.97;;;7.45;100.00
22047;BME280;11187;49.412;20.956;2023-04-02T01:29:52;93898.03;;;7.47;100.00
22047;BME280;11187;49.412;20.956;2023-04-02T01:32:29;93910.78;;;7.47;100.00
22047;BME280;11187;49.412;20.956;2023-04-02T01:35:23;93916.72;;;7.46;100.00
22047;BME280;11187;49.412;20.956;2023-04-02T01:38:26;93919.41;;;7.42;100.00
22047;BME280;11187;49.412;20.956;2023-04-02T01:41:09;93922.78;;;7.42;100.00
22047;BME280;11187;49.412;20.956;2023-04-02T01:44:09;93925.28;;;7.44;100.00
22047;BME280;11187;49.412;20.956;2023-04-02T01:46:47;93925.31;;;7.42;100.00
22047;BME280;11187;49.412;20.956;2023-04-02T01:49:38;93919.47;;;7.39;100.00
22047;BME280;11187;49.412;20.956;2023-04-02T01:52:42;93922.84;;;7.39;100.00
22047;BME280;11187;49.412;20.956;2023-04-02T01:55:22;93922.06;;;7.37;100.00
22047;BME280;11187;49.412;20.956;2023-04-02T01:58:11;93926.34;;;7.35;100.00
22047;BME280;11187;49.412;20.956;2023-04-02T02:00:52;93924.69;;;7.34;100.00
22047;BME280;11187;49.412;20.956;2023-04-02T02:03:43;93934.88;;;7.34;100.00
22047;BME280;11187;49.412;20.956;2023-04-02T02:06:17;93928.06;;;7.35;100.00
22047;BME280;11187;49.412;20.956;2023-04-02T02:09:06;93926.44;;;7.32;100.00
22047;BME280;11187;49.412;20.956;2023-04-02T02:11:43;93936.66;;;7.30;100.00
22047;BME280;11187;49.412;20.956;2023-04-02T02:14:30;93929.00;;;7.30;100.00
22047;BME280;11187;49.412;20.956;2023-04-02T02:17:17;93939.19;;;7.30;100.00
22047;BME280;11187;49.412;20.956;2023-04-02T02:20:06;93932.38;;;7.31;100.00
22047;BME280;11187;49.412;20.956;2023-04-02T02:22:49;93930.72;;;7.30;100.00
22047;BME280;11187;49.412;20.956;2023-04-02T02:25:38;93937.44;;;7.32;100.00
22047;BME280;11187;49.412;20.956;2023-04-02T02:28:35;93940.81;;;7.33;100.00
22047;BME280;11187;49.412;20.956;2023-04-02T02:31:32;93944.22;;;7.34;100.00
22047;BME280;11187;49.412;20.956;2023-04-02T02:34:33;93937.44;;;7.32;100.00
22047;BME280;11187;49.412;20.956;2023-04-02T02:37:15;93939.16;;;7.32;100.00
22047;BME280;11187;49.412;20.956;2023-04-02T02:40:07;93944.22;;;7.34;100.00
22047;BME280;11187;49.412;20.956;2023-04-02T02:42:50;93948.47;;;7.33;100.00
22047;BME280;11187;49.412;20.956;2023-04-02T02:45:41;93949.34;;;7.32;100.00
22047;BME280;11187;49.412;20.956;2023-04-02T02:48:19;93945.97;;;7.31;100.00
22047;BME280;11187;49.412;20.956;2023-04-02T02:51:15;93945.09;;;7.32;100.00
22047;BME280;11187;49.412;20.956;2023-04-02T02:53:52;93956.06;;;7.35;100.00
22047;BME280;11187;49.412;20.956;2023-04-02T02:56:44;93959.50;;;7.34;100.00
22047;BME280;11187;49.412;20.956;2023-04-02T02:59:20;93956.91;;;7.35;100.00
22047;BME280;11187;49.412;20.956;2023-04-02T03:02:15;93965.38;;;7.36;100.00
22047;BME280;11187;49.412;20.956;2023-04-02T03:05:19;93970.47;;;7.36;100.00
22047;BME280;11187;49.412;20.956;2023-04-02T03:07:55;93964.53;;;7.35;100.00
22047;BME280;11187;49.412;20.956;2023-04-02T03:10:49;93962.94;;;7.31;100.00
22047;BME280;11187;49.412;20.956;2023-04-02T03:13:33;93969.72;;;7.32;100.00
22047;BME280;11187;49.412;20.956;2023-04-02T03:16:36;93968.84;;;7.33;100.00
22047;BME280;11187;49.412;20.956;2023-04-02T03:19:25;93975.72;;;7.29;100.00
22047;BME280;11187;49.412;20.956;2023-04-02T03:22:27;93968.94;;;7.28;100.00
22047;BME280;11187;49.412;20.956;2023-04-02T03:25:24;93986.72;;;7.31;100.00
22047;BME280;11187;49.412;20.956;2023-04-02T03:28:16;93983.31;;;7.31;100.00
22047;BME280;11187;49.412;20.956;2023-04-02T03:34:14;93987.66;;;7.27;100.00
22047;BME280;11187;49.412;20.956;2023-04-02T03:37:20;93997.81;;;7.29;100.00
22047;BME280;11187;49.412;20.956;2023-04-02T03:40:00;94002.03;;;7.28;100.00
22047;BME280;11187;49.412;20.956;2023-04-02T03:42:53;93998.69;;;7.26;100.00
22047;BME280;11187;49.412;20.956;2023-04-02T03:45:32;94001.25;;;7.26;100.00
22047;BME280;11187;49.412;20.956;2023-04-02T03:48:41;94006.31;;;7.28;100.00
22047;BME280;11187;49.412;20.956;2023-04-02T03:51:42;94008.84;;;7.28;100.00
22047;BME280;11187;49.412;20.956;2023-04-02T03:54:18;94000.34;;;7.29;100.00
22047;BME280;11187;49.412;20.956;2023-04-02T03:57:15;94008.00;;;7.29;100.00
22047;BME280;11187;49.412;20.956;2023-04-02T04:00:07;94015.66;;;7.27;100.00
22047;BME280;11187;49.412;20.956;2023-04-02T04:03:11;94013.22;;;7.23;100.00
22047;BME280;11187;49.412;20.956;2023-04-02T04:06:10;94017.47;;;7.22;100.00
22047;BME280;11187;49.412;20.956;2023-04-02T04:08:53;94024.25;;;7.22;100.00
22047;BME280;11187;49.412;20.956;2023-04-02T04:11:48;94028.50;;;7.21;100.00
22047;BME280;11187;49.412;20.956;2023-04-02T04:14:34;94033.63;;;7.20;100.00
22047;BME280;11187;49.412;20.956;2023-04-02T04:23:36;94039.59;;;7.19;100.00
22047;BME280;11187;49.412;20.956;2023-04-02T04:26:43;94042.13;;;7.20;100.00
22047;BME280;11187;49.412;20.956;2023-04-02T04:29:44;94041.34;;;7.17;100.00
22047;BME280;11187;49.412;20.956;2023-04-02T04:32:37;94053.28;;;7.15;100.00
22047;BME280;11187;49.412;20.956;2023-04-02T04:35:26;94049.16;;;7.09;100.00
22047;BME280;11187;49.412;20.956;2023-04-02T04:38:25;94050.94;;;7.04;100.00
22047;BME280;11187;49.412;20.956;2023-04-02T04:41:23;94056.13;;;7.01;100.00
22047;BME280;11187;49.412;20.956;2023-04-02T04:44:45;94056.19;;;6.98;100.00
22047;BME280;11187;49.412;20.956;2023-04-02T04:47:49;94051.97;;;6.97;100.00
22047;BME280;11187;49.412;20.956;2023-04-02T04:50:56;94057.94;;;6.96;100.00
22047;BME280;11187;49.412;20.956;2023-04-02T04:53:52;94057.94;;;6.96;100.00
22047;BME280;11187;49.412;20.956;2023-04-02T04:56:44;94058.78;;;6.95;100.00
22047;BME280;11187;49.412;20.956;2023-04-02T04:59:30;94057.06;;;6.97;100.00
22047;BME280;11187;49.412;20.956;2023-04-02T05:02:15;94060.47;;;6.96;100.00
22047;BME280;11187;49.412;20.956;2023-04-02T05:05:25;94061.31;;;6.96;100.00
22047;BME280;11187;49.412;20.956;2023-04-02T05:08:24;94066.38;;;6.98;100.00
22047;BME280;11187;49.412;20.956;2023-04-02T05:11:37;94071.47;;;6.98;100.00
22047;BME280;11187;49.412;20.956;2023-04-02T05:17:52;94079.03;;;7.01;100.00
22047;BME280;11187;49.412;20.956;2023-04-02T05:23:50;94086.63;;;7.02;100.00
22047;BME280;11187;49.412;20.956;2023-04-02T05:26:41;94083.19;;;7.05;100.00
22047;BME280;11187;49.412;20.956;2023-04-02T05:29:21;94083.19;;;7.05;100.00
22047;BME280;11187;49.412;20.956;2023-04-02T05:32:21;94073.81;;;7.07;100.00
22047;BME280;11187;49.412;20.956;2023-04-02T05:34:56;94079.72;;;7.09;100.00
22047;BME280;11187;49.412;20.956;2023-04-02T05:37:53;94080.44;;;7.14;100.00
22047;BME280;11187;49.412;20.956;2023-04-02T05:41:23;94079.53;;;7.17;100.00
22047;BME280;11187;49.412;20.956;2023-04-02T05:44:05;94081.16;;;7.19;100.00
22047;BME280;11187;49.412;20.956;2023-04-02T05:50:35;94080.22;;;7.23;100.00
22047;BME280;11187;49.412;20.956;2023-04-02T05:53:12;94089.50;;;7.26;100.00
22047;BME280;11187;49.412;20.956;2023-04-02T05:59:17;94080.97;;;7.28;100.00
22047;BME280;11187;49.412;20.956;2023-04-02T06:01:58;94092.75;;;7.32;100.00
22047;BME280;11187;49.412;20.956;2023-04-02T06:05:01;94090.22;;;7.31;100.00
22047;BME280;11187;49.412;20.956;2023-04-02T06:07:45;94098.78;;;7.28;100.00
22047;BME280;11187;49.412;20.956;2023-04-02T06:10:51;94104.72;;;7.29;100.00
22047;BME280;11187;49.412;20.956;2023-04-02T06:13:47;94110.59;;;7.31;100.00
22047;BME280;11187;49.412;20.956;2023-04-02T06:16:25;94107.22;;;7.30;100.00
22047;BME280;11187;49.412;20.956;2023-04-02T06:19:30;94108.06;;;7.31;100.00
22047;BME280;11187;49.412;20.956;2023-04-02T06:22:24;94111.56;;;7.27;100.00
22047;BME280;11187;49.412;20.956;2023-04-02T06:25:32;94113.22;;;7.29;100.00
22047;BME280;11187;49.412;20.956;2023-04-02T06:28:37;94115.66;;;7.32;100.00
22047;BME280;11187;49.412;20.956;2023-04-02T06:31:37;94119.91;;;7.34;100.00
22047;BME280;11187;49.412;20.956;2023-04-02T06:34:28;94123.22;;;7.36;100.00
22047;BME280;11187;49.412;20.956;2023-04-02T06:40:41;94139.38;;;7.36;100.00
22047;BME280;11187;49.412;20.956;2023-04-02T06:46:33;94146.91;;;7.41;100.00
22047;BME280;11187;49.412;20.956;2023-04-02T06:49:53;94145.19;;;7.41;100.00
22047;BME280;11187;49.412;20.956;2023-04-02T06:52:52;94150.28;;;7.41;100.00
22047;BME280;11187;49.412;20.956;2023-04-02T06:55:54;94153.63;;;7.43;100.00
22047;BME280;11187;49.412;20.956;2023-04-02T06:58:51;94157.03;;;7.44;100.00
22047;BME280;11187;49.412;20.956;2023-04-02T07:01:28;94154.44;;;7.45;100.00
22047;BME280;11187;49.412;20.956;2023-04-02T07:04:17;94158.66;;;7.46;100.00
22047;BME280;11187;49.412;20.956;2023-04-02T07:06:51;94163.63;;;7.52;100.00
22047;BME280;11187;49.412;20.956;2023-04-02T07:09:45;94165.28;;;7.53;100.00
22047;BME280;11187;49.412;20.956;2023-04-02T07:12:39;94172.00;;;7.56;100.00
22047;BME280;11187;49.412;20.956;2023-04-02T07:15:16;94170.34;;;7.55;100.00
22047;BME280;11187;49.412;20.956;2023-04-02T07:18:04;94175.47;;;7.53;100.00
22047;BME280;11187;49.412;20.956;2023-04-02T07:20:37;94179.66;;;7.56;100.00
22047;BME280;11187;49.412;20.956;2023-04-02T07:23:31;94177.00;;;7.61;100.00
22047;BME280;11187;49.412;20.956;2023-04-02T07:26:05;94181.25;;;7.62;100.00
22047;BME280;11187;49.412;20.956;2023-04-02T07:29:00;94187.13;;;7.65;100.00
22047;BME280;11187;49.412;20.956;2023-04-02T07:31:54;94185.34;;;7.67;100.00
22047;BME280;11187;49.412;20.956;2023-04-02T07:34:48;94193.75;;;7.72;100.00
22047;BME280;11187;49.412;20.956;2023-04-02T07:37:21;94193.75;;;7.72;100.00
22047;BME280;11187;49.412;20.956;2023-04-02T07:40:17;94204.78;;;7.73;100.00
22047;BME280;11187;49.412;20.956;2023-04-02T07:43:11;94204.84;;;7.70;100.00
22047;BME280;11187;49.412;20.956;2023-04-02T07:46:06;94206.59;;;7.68;100.00
22047;BME280;11187;49.412;20.956;2023-04-02T07:49:02;94207.53;;;7.64;100.00
22047;BME280;11187;49.412;20.956;2023-04-02T07:51:56;94206.66;;;7.65;100.00
22047;BME280;11187;49.412;20.956;2023-04-02T07:54:50;94208.47;;;7.58;100.00
22047;BME280;11187;49.412;20.956;2023-04-02T07:57:23;94207.56;;;7.61;100.00
22047;BME280;11187;49.412;20.956;2023-04-02T08:00:17;94210.84;;;7.67;100.00
22047;BME280;11187;49.412;20.956;2023-04-02T08:02:51;94209.78;;;7.76;100.00
22047;BME280;11187;49.412;20.956;2023-04-02T08:05:55;94216.41;;;7.85;100.00
22047;BME280;11187;49.412;20.956;2023-04-02T08:08:49;94216.31;;;7.88;100.00
22047;BME280;11187;49.412;20.956;2023-04-02T08:11:43;94213.66;;;7.94;100.00
22047;BME280;11187;49.412;20.956;2023-04-02T08:14:18;94209.34;;;7.98;100.00
22047;BME280;11187;49.412;20.956;2023-04-02T08:17:12;94215.13;;;8.04;100.00
22047;BME280;11187;49.412;20.956;2023-04-02T08:19:45;94214.81;;;8.18;100.00
22047;BME280;11187;49.412;20.956;2023-04-02T08:22:34;94217.94;;;8.29;100.00
22047;BME280;11187;49.412;20.956;2023-04-02T08:25:08;94215.09;;;8.42;100.00
22047;BME280;11187;49.412;20.956;2023-04-02T08:27:55;94215.78;;;8.48;100.00
22047;BME280;11187;49.412;20.956;2023-04-02T08:30:28;94222.38;;;8.59;100.00
22047;BME280;11187;49.412;20.956;2023-04-02T08:33:15;94215.31;;;8.68;100.00
22047;BME280;11187;49.412;20.956;2023-04-02T08:35:49;94215.31;;;8.68;100.00
22047;BME280;11187;49.412;20.956;2023-04-02T08:38:36;94225.66;;;8.62;100.00
22047;BME280;11187;49.412;20.956;2023-04-02T08:41:20;94233.44;;;8.57;100.00
22047;BME280;11187;49.412;20.956;2023-04-02T08:46:57;94240.28;;;8.55;100.00
22047;BME280;11187;49.412;20.956;2023-04-02T08:50:01;94244.41;;;8.61;100.00
22047;BME280;11187;49.412;20.956;2023-04-02T08:52:57;94251.16;;;8.64;100.00
22047;BME280;11187;49.412;20.956;2023-04-02T08:55:56;94246.84;;;8.66;100.00
22047;BME280;11187;49.412;20.956;2023-04-02T08:58:47;94257.28;;;8.56;100.00
22047;BME280;11187;49.412;20.956;2023-04-02T09:05:16;94258.47;;;8.42;100.00
22047;BME280;11187;49.412;20.956;2023-04-02T09:07:51;94260.19;;;8.40;100.00
22047;BME280;11187;49.412;20.956;2023-04-02T09:10:41;94261.06;;;8.39;100.00
22047;BME280;11187;49.412;20.956;2023-04-02T09:13:26;94266.16;;;8.40;100.00
22047;BME280;11187;49.412;20.956;2023-04-02T09:16:18;94267.00;;;8.41;100.00
22047;BME280;11187;49.412;20.956;2023-04-02T09:18:55;94264.41;;;8.42;100.00
22047;BME280;11187;49.412;20.956;2023-04-02T09:21:58;94272.13;;;8.37;100.00
22047;BME280;11187;49.412;20.956;2023-04-02T09:24:35;94272.28;;;8.31;100.00
22047;BME280;11187;49.412;20.956;2023-04-02T09:27:28;94276.41;;;8.37;100.00
22047;BME280;11187;49.412;20.956;2023-04-02T09:30:23;94282.13;;;8.48;100.00
22047;BME280;11187;49.412;20.956;2023-04-02T09:33:19;94268.97;;;8.65;100.00
22047;BME280;11187;49.412;20.956;2023-04-02T09:36:38;94274.69;;;8.75;100.00
22047;BME280;11187;49.412;20.956;2023-04-02T09:39:32;94280.47;;;8.82;100.00
22047;BME280;11187;49.412;20.956;2023-04-02T09:42:30;94285.56;;;8.82;100.00
22047;BME280;11187;49.412;20.956;2023-04-02T09:48:00;94293.97;;;8.85;100.00
22047;BME280;11187;49.412;20.956;2023-04-02T09:50:34;94292.19;;;8.89;100.00
22047;BME280;11187;49.412;20.956;2023-04-02T09:53:33;94298.91;;;8.93;100.00
22047;BME280;11187;49.412;20.956;2023-04-02T09:56:28;94294.66;;;8.92;100.00
22047;BME280;11187;49.412;20.956;2023-04-02T09:59:22;94301.34;;;8.97;100.00
22047;BME280;11187;49.412;20.956;2023-04-02T10:02:28;94288.41;;;9.04;100.00
22047;BME280;11187;49.412;20.956;2023-04-02T10:05:03;94296.16;;;9.01;100.00
22047;BME280;11187;49.412;20.956;2023-04-02T10:07:52;94296.13;;;9.02;100.00
22047;BME280;11187;49.412;20.956;2023-04-02T10:16:32;94305.94;;;9.17;100.00
22047;BME280;11187;49.412;20.956;2023-04-02T10:19:42;94306.41;;;9.32;100.00
22047;BME280;11187;49.412;20.956;2023-04-02T10:22:38;94308.69;;;9.43;100.00
22047;BME280;11187;49.412;20.956;2023-04-02T10:25:14;94308.44;;;9.52;100.00
22047;BME280;11187;49.412;20.956;2023-04-02T10:28:26;94304.66;;;9.65;100.00
22047;BME280;11187;49.412;20.956;2023-04-02T10:31:22;94312.13;;;9.73;100.00
22047;BME280;11187;49.412;20.956;2023-04-02T10:34:24;94299.09;;;9.80;100.00
22047;BME280;11187;49.412;20.956;2023-04-02T10:37:07;94303.13;;;9.89;100.00
22047;BME280;11187;49.412;20.956;2023-04-02T10:55:47;94308.50;;;10.10;99.50
22047;BME280;11187;49.412;20.956;2023-04-02T11:01:30;94311.38;;;10.29;99.35
22047;BME280;11187;49.412;20.956;2023-04-02T11:04:18;94315.47;;;10.34;100.00
22047;BME280;11187;49.412;20.956;2023-04-02T11:07:00;94315.72;;;10.25;97.89
22047;BME280;11187;49.412;20.956;2023-04-02T11:09:55;94319.47;;;10.13;98.74
22047;BME280;11187;49.412;20.956;2023-04-02T11:12:41;94323.88;;;10.08;99.34
22047;BME280;11187;49.412;20.956;2023-04-02T11:15:30;94326.19;;;10.17;98.41
22047;BME280;11187;49.412;20.956;2023-04-02T11:18:04;94315.72;;;10.25;98.36
22047;BME280;11187;49.412;20.956;2023-04-02T11:20:59;94322.31;;;10.34;95.84
22047;BME280;11187;49.412;20.956;2023-04-02T11:23:50;94325.81;;;10.31;97.81
22047;BME280;11187;49.412;20.956;2023-04-02T11:26:40;94331.91;;;10.25;97.56
22047;BME280;11187;49.412;20.956;2023-04-02T11:29:25;94341.31;;;10.25;97.36
22047;BME280;11187;49.412;20.956;2023-04-02T11:37:47;94337.66;;;10.04;97.29
22047;BME280;11187;49.412;20.956;2023-04-02T11:49:37;94352.69;;;9.54;98.00
22047;BME280;11187;49.412;20.956;2023-04-02T11:52:50;94355.34;;;9.49;97.14
22047;BME280;11187;49.412;20.956;2023-04-02T11:55:29;94356.69;;;9.30;97.65
22047;BME280;11187;49.412;20.956;2023-04-02T12:10:33;94381.81;;;8.76;99.90
22047;BME280;11187;49.412;20.956;2023-04-02T12:16:34;94393.56;;;8.45;100.00
22047;BME280;11187;49.412;20.956;2023-04-02T12:19:29;94382.84;;;8.29;100.00
22047;BME280;11187;49.412;20.956;2023-04-02T12:22:04;94385.56;;;8.20;100.00
22047;BME280;11187;49.412;20.956;2023-04-02T12:24:54;94393.41;;;8.12;100.00
22047;BME280;11187;49.412;20.956;2023-04-02T12:27:29;94402.94;;;8.02;100.00
22047;BME280;11187;49.412;20.956;2023-04-02T12:30:21;94401.44;;;7.92;100.00
22047;BME280;11187;49.412;20.956;2023-04-02T12:32:54;94396.53;;;7.83;100.00
22047;BME280;11187;49.412;20.956;2023-04-02T12:35:43;94401.88;;;7.70;100.00
22047;BME280;11187;49.412;20.956;2023-04-02T12:38:28;94404.53;;;7.63;100.00
22047;BME280;11187;49.412;20.956;2023-04-02T12:41:30;94402.06;;;7.58;100.00
22047;BME280;11187;49.412;20.956;2023-04-02T12:44:10;94407.34;;;7.49;100.00
22047;BME280;11187;49.412;20.956;2023-04-02T12:46:58;94417.56;;;7.47;100.00
22047;BME280;11187;49.412;20.956;2023-04-02T12:49:39;94416.78;;;7.44;100.00
22047;BME280;11187;49.412;20.956;2023-04-02T12:52:28;94414.28;;;7.41;100.00
22047;BME280;11187;49.412;20.956;2023-04-02T12:55:02;94427.06;;;7.38;100.00
22047;BME280;11187;49.412;20.956;2023-04-02T12:57:57;94433.19;;;7.27;100.00
22047;BME280;11187;49.412;20.956;2023-04-02T13:00:31;94442.53;;;7.27;100.00
22047;BME280;11187;49.412;20.956;2023-04-02T13:03:20;94449.31;;;7.26;100.00
22047;BME280;11187;49.412;20.956;2023-04-02T13:05:55;94446.00;;;7.21;100.00
22047;BME280;11187;49.412;20.956;2023-04-02T13:08:49;94448.63;;;7.18;100.00
22047;BME280;11187;49.412;20.956;2023-04-02T13:11:43;94455.50;;;7.13;100.00
22047;BME280;11187;49.412;20.956;2023-04-02T13:14:19;94457.22;;;7.09;100.00
22047;BME280;11187;49.412;20.956;2023-04-02T13:17:42;94464.19;;;6.97;100.00
22047;BME280;11187;49.412;20.956;2023-04-02T13:26:24;94475.91;;;6.50;100.00
22047;BME280;11187;49.412;20.956;2023-04-02T13:29:32;94484.47;;;6.41;100.00
22047;BME280;11187;49.412;20.956;2023-04-02T13:32:11;94480.34;;;6.32;100.00
22047;BME280;11187;49.412;20.956;2023-04-02T13:34:59;94483.13;;;6.11;100.00
22047;BME280;11187;49.412;20.956;2023-04-02T13:37:31;94494.34;;;5.90;100.00
22047;BME280;11187;49.412;20.956;2023-04-02T13:40:18;94487.59;;;5.89;100.00
22047;BME280;11187;49.412;20.956;2023-04-02T13:42:51;94501.06;;;5.94;100.00
22047;BME280;11187;49.412;20.956;2023-04-02T13:45:50;94511.44;;;5.77;100.00
22047;BME280;11187;49.412;20.956;2023-04-02T13:48:24;94497.94;;;5.67;100.00
22047;BME280;11187;49.412;20.956;2023-04-02T13:51:21;94512.38;;;5.62;100.00
22047;BME280;11187;49.412;20.956;2023-04-02T13:54:22;94515.88;;;5.50;100.00
22047;BME280;11187;49.412;20.956;2023-04-02T13:56:56;94519.34;;;5.40;100.00
22047;BME280;11187;49.412;20.956;2023-04-02T13:59:42;94523.66;;;5.29;100.00
22047;BME280;11187;49.412;20.956;2023-04-02T14:02:23;94529.56;;;5.32;100.00
22047;BME280;11187;49.412;20.956;2023-04-02T14:05:31;94535.50;;;5.28;100.00
22047;BME280;11187;49.412;20.956;2023-04-02T14:08:19;94531.31;;;5.24;100.00
22047;BME280;11187;49.412;20.956;2023-04-02T14:17:44;94537.19;;;5.31;100.00
22047;BME280;11187;49.412;20.956;2023-04-02T14:26:58;94555.09;;;5.12;100.00
22047;BME280;11187;49.412;20.956;2023-04-02T14:35:44;94567.03;;;4.93;100.00
22047;BME280;11187;49.412;20.956;2023-04-02T14:38:30;94568.81;;;4.77;100.00
22047;BME280;11187;49.412;20.956;2023-04-02T14:41:39;94564.66;;;4.66;100.00
22047;BME280;11187;49.412;20.956;2023-04-02T14:44:40;94574.81;;;4.61;100.00
22047;BME280;11187;49.412;20.956;2023-04-02T14:47:34;94578.16;;;4.66;100.00
22047;BME280;11187;49.412;20.956;2023-04-02T14:50:26;94582.38;;;4.70;100.00
22047;BME280;11187;49.412;20.956;2023-04-02T14:53:30;94579.78;;;4.76;100.00
22047;BME280;11187;49.412;20.956;2023-04-02T14:56:06;94591.63;;;4.79;100.00
22047;BME280;11187;49.412;20.956;2023-04-02T15:01:39;94589.16;;;4.64;100.00
22047;BME280;11187;49.412;20.956;2023-04-02T15:04:40;94600.97;;;4.66;100.00
22047;BME280;11187;49.412;20.956;2023-04-02T15:07:21;94609.44;;;4.62;100.00
22047;BME280;11187;49.412;20.956;2023-04-02T15:12:51;94607.78;;;4.53;100.00
22047;BME280;11187;49.412;20.956;2023-04-02T15:15:40;94612.84;;;4.52;100.00
22047;BME280;11187;49.412;20.956;2023-04-02T15:18:16;94606.97;;;4.50;100.00
22047;BME280;11187;49.412;20.956;2023-04-02T15:21:31;94622.22;;;4.34;100.00
22047;BME280;11187;49.412;20.956;2023-04-02T15:24:16;94626.47;;;4.25;100.00
22047;BME280;11187;49.412;20.956;2023-04-02T15:30:05;94631.53;;;4.12;100.00
22047;BME280;11187;49.412;20.956;2023-04-02T15:39:45;94646.72;;;4.11;100.00
22047;BME280;11187;49.412;20.956;2023-04-02T15:42:33;94641.66;;;4.03;100.00
22047;BME280;11187;49.412;20.956;2023-04-02T15:46:13;94650.97;;;4.01;100.00
22047;BME280;11187;49.412;20.956;2023-04-02T15:49:22;94651.81;;;3.97;100.00
22047;BME280;11187;49.412;20.956;2023-04-02T15:52:37;94656.88;;;3.92;100.00
22047;BME280;11187;49.412;20.956;2023-04-02T15:55:33;94653.50;;;3.87;100.00
22047;BME280;11187;49.412;20.956;2023-04-02T16:01:36;94672.91;;;3.71;100.00
22047;BME280;11187;49.412;20.956;2023-04-02T16:13:33;94675.44;;;3.68;100.00
22047;BME280;11187;49.412;20.956;2023-04-02T16:16:26;94679.66;;;3.71;100.00
22047;BME280;11187;49.412;20.956;2023-04-02T16:22:29;94688.94;;;3.63;100.00
22047;BME280;11187;49.412;20.956;2023-04-02T16:25:22;94696.53;;;3.61;100.00
22047;BME280;11187;49.412;20.956;2023-04-02T16:28:23;94690.63;;;3.59;100.00
22047;BME280;11187;49.412;20.956;2023-04-02T16:37:21;94709.19;;;3.60;100.00
22047;BME280;11187;49.412;20.956;2023-04-02T16:40:36;94714.25;;;3.61;100.00
22047;BME280;11187;49.412;20.956;2023-04-02T16:43:51;94706.66;;;3.60;100.00
22047;BME280;11187;49.412;20.956;2023-04-02T16:49:47;94715.06;;;3.63;100.00
22047;BME280;11187;49.412;20.956;2023-04-02T17:02:43;94735.31;;;3.52;100.00
22047;BME280;11187;49.412;20.956;2023-04-02T17:05:57;94735.31;;;3.54;100.00
22047;BME280;11187;49.412;20.956;2023-04-02T17:08:45;94738.66;;;3.47;100.00
22047;BME280;11187;49.412;20.956;2023-04-02T17:14:43;94751.31;;;3.47;100.00
22047;BME280;11187;49.412;20.956;2023-04-02T17:17:44;94757.22;;;3.41;100.00
22047;BME280;11187;49.412;20.956;2023-04-02T17:20:38;94757.22;;;3.43;100.00
22047;BME280;11187;49.412;20.956;2023-04-02T17:23:13;94759.75;;;3.43;100.00
22047;BME280;11187;49.412;20.956;2023-04-02T17:26:05;94768.19;;;3.39;100.00
22047;BME280;11187;49.412;20.956;2023-04-02T17:28:40;94769.03;;;3.41;100.00
22047;BME280;11187;49.412;20.956;2023-04-02T17:31:36;94779.09;;;3.36;100.00
22047;BME280;11187;49.412;20.956;2023-04-02T17:34:16;94776.59;;;3.36;100.00
22047;BME280;11187;49.412;20.956;2023-04-02T17:37:22;94783.34;;;3.37;100.00
22047;BME280;11187;49.412;20.956;2023-04-02T17:40:03;94775.75;;;3.29;100.00
22047;BME280;11187;49.412;20.956;2023-04-02T17:45:49;94786.66;;;3.27;100.00
22047;BME280;11187;49.412;20.956;2023-04-02T17:48:44;94786.66;;;3.19;100.00
22047;BME280;11187;49.412;20.956;2023-04-02T17:57:34;94797.56;;;3.10;100.00
22047;BME280;11187;49.412;20.956;2023-04-02T18:00:56;94800.09;;;3.09;100.00
22047;BME280;11187;49.412;20.956;2023-04-02T18:13:22;94802.56;;;3.01;100.00
22047;BME280;11187;49.412;20.956;2023-04-02T18:19:17;94818.53;;;2.91;100.00
22047;BME280;11187;49.412;20.956;2023-04-02T18:25:21;94828.63;;;2.89;100.00
22047;BME280;11187;49.412;20.956;2023-04-02T18:28:32;94822.66;;;2.81;100.00
22047;BME280;11187;49.412;20.956;2023-04-02T18:41:25;94831.88;;;2.68;100.00
22047;BME280;11187;49.412;20.956;2023-04-02T18:50:17;94838.56;;;2.62;100.00
22047;BME280;11187;49.412;20.956;2023-04-02T18:53:18;94834.28;;;2.56;100.00